sensor_id;sensor_type;location;lat;lon;timestamp;temperature;humidity
30473;DHT22;17263;48.160;11.452;2023-08-01T00:00:30;18.40;99.90
30473;DHT22;17263;48.160;11.452;2023-08-01T00:02:57;18.40;99.90
30473;DHT22;17263;48.160;11.452;2023-08-01T00:05:23;18.40;99.90
30473;DHT22;17263;48.160;11.452;2023-08-01T00:07:49;18.40;99.90
30473;DHT22;17263;48.160;11.452;2023-08-01T00:10:17;18.40;99.90
30473;DHT22;17263;48.160;11.452;2023-08-01T00:12:43;18.40;99.90
30473;DHT22;17263;48.160;11.452;2023-08-01T00:15:09;18.40;99.90
30473;DHT22;17263;48.160;11.452;2023-08-01T00:17:35;18.40;99.90
30473;DHT22;17263;48.160;11.452;2023-08-01T00:20:02;18.40;99.90
30473;DHT22;17263;48.160;11.452;2023-08-01T00:22:31;18.40;99.90
30473;DHT22;17263;48.160;11.452;2023-08-01T00:24:58;18.40;99.90
30473;DHT22;17263;48.160;11.452;2023-08-01T00:27:24;18.40;99.90
30473;DHT22;17263;48.160;11.452;2023-08-01T00:29:50;18.40;99.90
30473;DHT22;17263;48.160;11.452;2023-08-01T00:32:16;18.40;99.90
30473;DHT22;17263;48.160;11.452;2023-08-01T00:34:42;18.40;99.90
30473;DHT22;17263;48.160;11.452;2023-08-01T00:37:08;18.40;99.90
30473;DHT22;17263;48.160;11.452;2023-08-01T00:39:34;18.40;99.90
30473;DHT22;17263;48.160;11.452;2023-08-01T00:42:00;18.40;99.90
30473;DHT22;17263;48.160;11.452;2023-08-01T00:44:26;18.40;99.90
30473;DHT22;17263;48.160;11.452;2023-08-01T00:46:52;18.40;99.90
30473;DHT22;17263;48.160;11.452;2023-08-01T00:49:18;18.40;99.90
30473;DHT22;17263;48.160;11.452;2023-08-01T00:51:45;18.40;99.90
30473;DHT22;17263;48.160;11.452;2023-08-01T00:54:11;18.40;99.90
30473;DHT22;17263;48.160;11.452;2023-08-01T00:56:37;18.40;99.90
30473;DHT22;17263;48.160;11.452;2023-08-01T00:59:03;18.40;99.90
30473;DHT22;17263;48.160;11.452;2023-08-01T01:01:29;18.40;99.90
30473;DHT22;17263;48.160;11.452;2023-08-01T01:03:55;18.50;99.90
30473;DHT22;17263;48.160;11.452;2023-08-01T01:06:31;18.50;99.90
30473;DHT22;17263;48.160;11.452;2023-08-01T01:08:58;18.50;99.90
30473;DHT22;17263;48.160;11.452;2023-08-01T01:11:24;18.50;99.90
30473;DHT22;17263;48.160;11.452;2023-08-01T01:13:50;18.50;99.90
30473;DHT22;17263;48.160;11.452;2023-08-01T01:16:19;18.50;99.90
30473;DHT22;17263;48.160;11.452;2023-08-01T01:18:45;18.50;99.90
30473;DHT22;17263;48.160;11.452;2023-08-01T01:21:11;18.40;99.90
30473;DHT22;17263;48.160;11.452;2023-08-01T01:23:38;18.40;99.90
30473;DHT22;17263;48.160;11.452;2023-08-01T01:26:06;18.40;99.90
30473;DHT22;17263;48.160;11.452;2023-08-01T01:28:34;18.40;99.90
30473;DHT22;17263;48.160;11.452;2023-08-01T01:31:01;18.40;99.90
30473;DHT22;17263;48.160;11.452;2023-08-01T01:33:28;18.40;99.90
30473;DHT22;17263;48.160;11.452;2023-08-01T01:35:54;18.40;99.90
30473;DHT22;17263;48.160;11.452;2023-08-01T01:38:20;18.40;99.90
30473;DHT22;17263;48.160;11.452;2023-08-01T01:40:46;18.40;99.90
30473;DHT22;17263;48.160;11.452;2023-08-01T01:43:12;18.40;99.90
30473;DHT22;17263;48.160;11.452;2023-08-01T01:45:38;18.40;99.90
30473;DHT22;17263;48.160;11.452;2023-08-01T01:48:04;18.40;99.90
30473;DHT22;17263;48.160;11.452;2023-08-01T01:50:30;18.40;99.90
30473;DHT22;17263;48.160;11.452;2023-08-01T01:52:56;18.30;99.90
30473;DHT22;17263;48.160;11.452;2023-08-01T01:55:22;18.30;99.90
30473;DHT22;17263;48.160;11.452;2023-08-01T01:57:48;18.20;99.90
30473;DHT22;17263;48.160;11.452;2023-08-01T02:00:15;18.30;99.90
30473;DHT22;17263;48.160;11.452;2023-08-01T02:02:41;18.20;99.90
30473;DHT22;17263;48.160;11.452;2023-08-01T02:05:07;18.30;99.90
30473;DHT22;17263;48.160;11.452;2023-08-01T02:07:33;18.20;99.90
30473;DHT22;17263;48.160;11.452;2023-08-01T02:10:00;18.20;99.90
30473;DHT22;17263;48.160;11.452;2023-08-01T02:12:27;18.20;99.90
30473;DHT22;17263;48.160;11.452;2023-08-01T02:14:53;18.20;99.90
30473;DHT22;17263;48.160;11.452;2023-08-01T02:17:19;18.20;99.90
30473;DHT22;17263;48.160;11.452;2023-08-01T02:19:45;18.20;99.90
30473;DHT22;17263;48.160;11.452;2023-08-01T02:22:11;18.20;99.90
30473;DHT22;17263;48.160;11.452;2023-08-01T02:24:37;18.20;99.90
30473;DHT22;17263;48.160;11.452;2023-08-01T02:27:03;18.20;99.90
30473;DHT22;17263;48.160;11.452;2023-08-01T02:29:29;18.20;99.90
30473;DHT22;17263;48.160;11.452;2023-08-01T02:31:55;18.20;99.90
30473;DHT22;17263;48.160;11.452;2023-08-01T02:34:22;18.20;99.90
30473;DHT22;17263;48.160;11.452;2023-08-01T02:36:48;18.20;99.90
30473;DHT22;17263;48.160;11.452;2023-08-01T02:39:14;18.20;99.90
30473;DHT22;17263;48.160;11.452;2023-08-01T02:41:40;18.20;99.90
30473;DHT22;17263;48.160;11.452;2023-08-01T02:44:06;18.20;99.90
30473;DHT22;17263;48.160;11.452;2023-08-01T02:46:32;18.20;99.90
30473;DHT22;17263;48.160;11.452;2023-08-01T02:48:58;18.20;99.90
30473;DHT22;17263;48.160;11.452;2023-08-01T02:51:24;18.20;99.90
30473;DHT22;17263;48.160;11.452;2023-08-01T02:53:50;18.20;99.90
30473;DHT22;17263;48.160;11.452;2023-08-01T02:56:16;18.20;99.90
30473;DHT22;17263;48.160;11.452;2023-08-01T02:58:42;18.20;99.90
30473;DHT22;17263;48.160;11.452;2023-08-01T03:01:08;18.20;99.90
30473;DHT22;17263;48.160;11.452;2023-08-01T03:03:36;18.20;99.90
30473;DHT22;17263;48.160;11.452;2023-08-01T03:06:02;18.30;99.90
30473;DHT22;17263;48.160;11.452;2023-08-01T03:08:29;18.20;99.90
30473;DHT22;17263;48.160;11.452;2023-08-01T03:10:55;18.20;99.90
30473;DHT22;17263;48.160;11.452;2023-08-01T03:13:21;18.20;99.90
30473;DHT22;17263;48.160;11.452;2023-08-01T03:15:47;18.20;99.90
30473;DHT22;17263;48.160;11.452;2023-08-01T03:18:13;18.20;99.90
30473;DHT22;17263;48.160;11.452;2023-08-01T03:20:40;18.20;99.90
30473;DHT22;17263;48.160;11.452;2023-08-01T03:23:06;18.20;99.90
30473;DHT22;17263;48.160;11.452;2023-08-01T03:25:32;18.20;99.90
30473;DHT22;17263;48.160;11.452;2023-08-01T03:27:58;18.20;99.90
30473;DHT22;17263;48.160;11.452;2023-08-01T03:30:24;18.20;99.90
30473;DHT22;17263;48.160;11.452;2023-08-01T03:32:51;18.20;99.90
30473;DHT22;17263;48.160;11.452;2023-08-01T03:35:17;18.20;99.90
30473;DHT22;17263;48.160;11.452;2023-08-01T03:37:43;18.20;99.90
30473;DHT22;17263;48.160;11.452;2023-08-01T03:40:10;18.20;99.90
30473;DHT22;17263;48.160;11.452;2023-08-01T03:42:36;18.20;99.90
30473;DHT22;17263;48.160;11.452;2023-08-01T03:45:03;18.10;99.90
30473;DHT22;17263;48.160;11.452;2023-08-01T03:47:30;18.10;99.90
30473;DHT22;17263;48.160;11.452;2023-08-01T03:49:56;18.00;99.90
30473;DHT22;17263;48.160;11.452;2023-08-01T03:52:22;18.00;99.90
30473;DHT22;17263;48.160;11.452;2023-08-01T03:54:48;17.90;99.90
30473;DHT22;17263;48.160;11.452;2023-08-01T03:57:15;17.90;99.90
30473;DHT22;17263;48.160;11.452;2023-08-01T03:59:41;17.80;99.90
30473;DHT22;17263;48.160;11.452;2023-08-01T04:02:07;17.80;99.90
30473;DHT22;17263;48.160;11.452;2023-08-01T04:04:33;17.70;99.90
30473;DHT22;17263;48.160;11.452;2023-08-01T04:06:59;17.70;99.90
30473;DHT22;17263;48.160;11.452;2023-08-01T04:09:25;17.60;99.90
30473;DHT22;17263;48.160;11.452;2023-08-01T04:11:51;17.60;99.90
30473;DHT22;17263;48.160;11.452;2023-08-01T04:14:17;17.60;99.90
30473;DHT22;17263;48.160;11.452;2023-08-01T04:16:43;17.60;99.90
30473;DHT22;17263;48.160;11.452;2023-08-01T04:19:09;17.50;99.90
30473;DHT22;17263;48.160;11.452;2023-08-01T04:21:35;17.40;99.90
30473;DHT22;17263;48.160;11.452;2023-08-01T04:24:01;17.40;99.90
30473;DHT22;17263;48.160;11.452;2023-08-01T04:26:27;17.40;99.90
30473;DHT22;17263;48.160;11.452;2023-08-01T04:28:53;17.30;99.90
30473;DHT22;17263;48.160;11.452;2023-08-01T04:31:19;17.30;99.90
30473;DHT22;17263;48.160;11.452;2023-08-01T04:33:45;17.30;99.90
30473;DHT22;17263;48.160;11.452;2023-08-01T04:36:11;17.40;99.90
30473;DHT22;17263;48.160;11.452;2023-08-01T04:38:37;17.40;99.90
30473;DHT22;17263;48.160;11.452;2023-08-01T04:41:03;17.40;99.90
30473;DHT22;17263;48.160;11.452;2023-08-01T04:43:29;17.30;99.90
30473;DHT22;17263;48.160;11.452;2023-08-01T04:45:55;17.30;99.90
30473;DHT22;17263;48.160;11.452;2023-08-01T04:48:21;17.30;99.90
30473;DHT22;17263;48.160;11.452;2023-08-01T04:50:47;17.30;99.90
30473;DHT22;17263;48.160;11.452;2023-08-01T04:53:13;17.20;99.90
30473;DHT22;17263;48.160;11.452;2023-08-01T04:55:40;17.20;99.90
30473;DHT22;17263;48.160;11.452;2023-08-01T04:58:06;17.20;99.90
30473;DHT22;17263;48.160;11.452;2023-08-01T05:00:32;17.20;99.90
30473;DHT22;17263;48.160;11.452;2023-08-01T05:02:58;17.20;99.90
30473;DHT22;17263;48.160;11.452;2023-08-01T05:05:24;17.10;99.90
30473;DHT22;17263;48.160;11.452;2023-08-01T05:07:50;17.10;99.90
30473;DHT22;17263;48.160;11.452;2023-08-01T05:10:16;17.10;99.90
30473;DHT22;17263;48.160;11.452;2023-08-01T05:12:42;17.20;99.90
30473;DHT22;17263;48.160;11.452;2023-08-01T05:15:08;17.10;99.90
30473;DHT22;17263;48.160;11.452;2023-08-01T05:17:34;17.10;99.90
30473;DHT22;17263;48.160;11.452;2023-08-01T05:20:00;17.00;99.90
30473;DHT22;17263;48.160;11.452;2023-08-01T05:22:26;17.10;99.90
30473;DHT22;17263;48.160;11.452;2023-08-01T05:24:52;17.10;99.90
30473;DHT22;17263;48.160;11.452;2023-08-01T05:27:19;17.10;99.90
30473;DHT22;17263;48.160;11.452;2023-08-01T05:29:45;17.10;99.90
30473;DHT22;17263;48.160;11.452;2023-08-01T05:32:11;17.10;99.90
30473;DHT22;17263;48.160;11.452;2023-08-01T05:34:37;17.10;99.90
30473;DHT22;17263;48.160;11.452;2023-08-01T05:37:03;17.10;99.90
30473;DHT22;17263;48.160;11.452;2023-08-01T05:39:29;17.10;99.90
30473;DHT22;17263;48.160;11.452;2023-08-01T05:41:55;17.10;99.90
30473;DHT22;17263;48.160;11.452;2023-08-01T05:44:21;17.20;99.90
30473;DHT22;17263;48.160;11.452;2023-08-01T05:46:47;17.20;99.90
30473;DHT22;17263;48.160;11.452;2023-08-01T05:49:13;17.30;99.90
30473;DHT22;17263;48.160;11.452;2023-08-01T05:51:39;17.40;99.90
30473;DHT22;17263;48.160;11.452;2023-08-01T05:54:05;17.50;99.90
30473;DHT22;17263;48.160;11.452;2023-08-01T05:56:31;17.60;99.90
30473;DHT22;17263;48.160;11.452;2023-08-01T05:58:57;17.50;99.90
30473;DHT22;17263;48.160;11.452;2023-08-01T06:01:23;17.50;99.90
30473;DHT22;17263;48.160;11.452;2023-08-01T06:03:50;17.50;99.90
30473;DHT22;17263;48.160;11.452;2023-08-01T06:06:16;17.50;99.90
30473;DHT22;17263;48.160;11.452;2023-08-01T06:08:42;17.60;99.90
30473;DHT22;17263;48.160;11.452;2023-08-01T06:11:08;17.60;99.90
30473;DHT22;17263;48.160;11.452;2023-08-01T06:13:34;17.60;99.90
30473;DHT22;17263;48.160;11.452;2023-08-01T06:16:00;17.60;99.90
30473;DHT22;17263;48.160;11.452;2023-08-01T06:18:26;17.70;99.90
30473;DHT22;17263;48.160;11.452;2023-08-01T06:20:52;17.70;99.90
30473;DHT22;17263;48.160;11.452;2023-08-01T06:23:18;17.70;99.90
30473;DHT22;17263;48.160;11.452;2023-08-01T06:25:44;17.70;99.90
30473;DHT22;17263;48.160;11.452;2023-08-01T06:28:10;17.70;99.90
30473;DHT22;17263;48.160;11.452;2023-08-01T06:30:36;17.70;99.90
30473;DHT22;17263;48.160;11.452;2023-08-01T06:33:02;17.70;99.90
30473;DHT22;17263;48.160;11.452;2023-08-01T06:35:28;17.80;99.90
30473;DHT22;17263;48.160;11.452;2023-08-01T06:37:54;17.70;99.90
30473;DHT22;17263;48.160;11.452;2023-08-01T06:40:20;17.70;99.90
30473;DHT22;17263;48.160;11.452;2023-08-01T06:42:46;17.70;99.90
30473;DHT22;17263;48.160;11.452;2023-08-01T06:45:12;17.80;99.90
30473;DHT22;17263;48.160;11.452;2023-08-01T06:47:38;17.70;99.90
30473;DHT22;17263;48.160;11.452;2023-08-01T06:50:05;17.70;99.90
30473;DHT22;17263;48.160;11.452;2023-08-01T06:52:31;17.70;99.90
30473;DHT22;17263;48.160;11.452;2023-08-01T06:54:57;17.70;99.90
30473;DHT22;17263;48.160;11.452;2023-08-01T06:57:23;17.70;99.90
30473;DHT22;17263;48.160;11.452;2023-08-01T06:59:49;17.80;99.90
30473;DHT22;17263;48.160;11.452;2023-08-01T07:02:15;17.80;99.90
30473;DHT22;17263;48.160;11.452;2023-08-01T07:04:42;17.90;99.90
30473;DHT22;17263;48.160;11.452;2023-08-01T07:07:08;18.00;99.90
30473;DHT22;17263;48.160;11.452;2023-08-01T07:09:34;17.90;99.90
30473;DHT22;17263;48.160;11.452;2023-08-01T07:12:01;18.00;99.90
30473;DHT22;17263;48.160;11.452;2023-08-01T07:14:27;18.00;99.90
30473;DHT22;17263;48.160;11.452;2023-08-01T07:16:53;18.10;99.90
30473;DHT22;17263;48.160;11.452;2023-08-01T07:19:19;18.20;99.90
30473;DHT22;17263;48.160;11.452;2023-08-01T07:21:45;18.20;99.90
30473;DHT22;17263;48.160;11.452;2023-08-01T07:24:13;18.20;99.90
30473;DHT22;17263;48.160;11.452;2023-08-01T07:26:40;18.30;99.90
30473;DHT22;17263;48.160;11.452;2023-08-01T07:29:06;18.40;99.90
30473;DHT22;17263;48.160;11.452;2023-08-01T07:31:35;18.40;99.90
30473;DHT22;17263;48.160;11.452;2023-08-01T07:34:02;18.50;99.90
30473;DHT22;17263;48.160;11.452;2023-08-01T07:36:28;18.50;99.90
30473;DHT22;17263;48.160;11.452;2023-08-01T07:38:54;18.50;99.90
30473;DHT22;17263;48.160;11.452;2023-08-01T07:41:22;18.50;99.90
30473;DHT22;17263;48.160;11.452;2023-08-01T07:43:48;18.50;99.90
30473;DHT22;17263;48.160;11.452;2023-08-01T07:46:14;18.70;99.90
30473;DHT22;17263;48.160;11.452;2023-08-01T07:48:40;18.70;99.90
30473;DHT22;17263;48.160;11.452;2023-08-01T07:51:06;18.80;99.90
30473;DHT22;17263;48.160;11.452;2023-08-01T07:53:34;18.90;99.90
30473;DHT22;17263;48.160;11.452;2023-08-01T07:56:00;18.90;99.90
30473;DHT22;17263;48.160;11.452;2023-08-01T07:58:28;18.90;99.90
30473;DHT22;17263;48.160;11.452;2023-08-01T08:00:54;19.00;99.90
30473;DHT22;17263;48.160;11.452;2023-08-01T08:03:20;19.10;99.90
30473;DHT22;17263;48.160;11.452;2023-08-01T08:05:49;19.10;99.90
30473;DHT22;17263;48.160;11.452;2023-08-01T08:08:15;19.20;99.90
30473;DHT22;17263;48.160;11.452;2023-08-01T08:10:41;19.20;99.90
30473;DHT22;17263;48.160;11.452;2023-08-01T08:13:09;19.40;99.90
30473;DHT22;17263;48.160;11.452;2023-08-01T08:15:35;19.40;99.90
30473;DHT22;17263;48.160;11.452;2023-08-01T08:18:01;19.60;99.90
30473;DHT22;17263;48.160;11.452;2023-08-01T08:20:44;19.80;99.90
30473;DHT22;17263;48.160;11.452;2023-08-01T08:23:11;20.10;99.90
30473;DHT22;17263;48.160;11.452;2023-08-01T08:25:40;20.30;99.90
30473;DHT22;17263;48.160;11.452;2023-08-01T08:28:07;20.70;99.90
30473;DHT22;17263;48.160;11.452;2023-08-01T08:30:33;21.00;99.90
30473;DHT22;17263;48.160;11.452;2023-08-01T08:33:01;21.30;99.90
30473;DHT22;17263;48.160;11.452;2023-08-01T08:35:30;21.60;99.90
30473;DHT22;17263;48.160;11.452;2023-08-01T08:37:59;21.70;99.90
30473;DHT22;17263;48.160;11.452;2023-08-01T08:40:25;21.60;99.90
30473;DHT22;17263;48.160;11.452;2023-08-01T08:42:52;21.60;99.90
30473;DHT22;17263;48.160;11.452;2023-08-01T08:45:19;21.50;99.90
30473;DHT22;17263;48.160;11.452;2023-08-01T08:47:53;21.40;99.90
30473;DHT22;17263;48.160;11.452;2023-08-01T08:50:20;21.50;99.90
30473;DHT22;17263;48.160;11.452;2023-08-01T08:52:46;21.40;99.90
30473;DHT22;17263;48.160;11.452;2023-08-01T08:55:13;21.40;99.90
30473;DHT22;17263;48.160;11.452;2023-08-01T08:57:39;21.40;99.90
30473;DHT22;17263;48.160;11.452;2023-08-01T09:00:06;21.30;99.90
30473;DHT22;17263;48.160;11.452;2023-08-01T09:02:33;21.30;99.90
30473;DHT22;17263;48.160;11.452;2023-08-01T09:04:59;21.40;99.90
30473;DHT22;17263;48.160;11.452;2023-08-01T09:07:29;21.40;99.90
30473;DHT22;17263;48.160;11.452;2023-08-01T09:09:55;21.20;99.90
30473;DHT22;17263;48.160;11.452;2023-08-01T09:12:21;21.10;99.90
30473;DHT22;17263;48.160;11.452;2023-08-01T09:14:50;21.00;99.90
30473;DHT22;17263;48.160;11.452;2023-08-01T09:17:16;21.00;99.90
30473;DHT22;17263;48.160;11.452;2023-08-01T09:19:44;21.10;99.90
30473;DHT22;17263;48.160;11.452;2023-08-01T09:22:11;21.10;99.90
30473;DHT22;17263;48.160;11.452;2023-08-01T09:24:37;21.20;99.90
30473;DHT22;17263;48.160;11.452;2023-08-01T09:27:04;21.30;99.90
30473;DHT22;17263;48.160;11.452;2023-08-01T09:29:30;21.30;99.90
30473;DHT22;17263;48.160;11.452;2023-08-01T09:31:58;21.40;99.90
30473;DHT22;17263;48.160;11.452;2023-08-01T09:34:26;21.20;99.90
30473;DHT22;17263;48.160;11.452;2023-08-01T09:36:58;21.10;99.90
30473;DHT22;17263;48.160;11.452;2023-08-01T09:39:25;21.10;99.90
30473;DHT22;17263;48.160;11.452;2023-08-01T09:42:02;21.10;99.90
30473;DHT22;17263;48.160;11.452;2023-08-01T09:44:29;21.00;99.90
30473;DHT22;17263;48.160;11.452;2023-08-01T09:46:59;21.00;99.90
30473;DHT22;17263;48.160;11.452;2023-08-01T09:49:27;21.10;99.90
30473;DHT22;17263;48.160;11.452;2023-08-01T09:51:53;21.10;99.90
30473;DHT22;17263;48.160;11.452;2023-08-01T09:54:21;21.00;99.90
30473;DHT22;17263;48.160;11.452;2023-08-01T09:56:49;21.00;99.90
30473;DHT22;17263;48.160;11.452;2023-08-01T09:59:23;21.00;99.90
30473;DHT22;17263;48.160;11.452;2023-08-01T10:01:51;21.00;99.90
30473;DHT22;17263;48.160;11.452;2023-08-01T10:04:29;20.90;99.90
30473;DHT22;17263;48.160;11.452;2023-08-01T10:07:02;20.80;99.90
30473;DHT22;17263;48.160;11.452;2023-08-01T10:09:31;20.80;99.90
30473;DHT22;17263;48.160;11.452;2023-08-01T10:11:58;20.80;99.90
30473;DHT22;17263;48.160;11.452;2023-08-01T10:14:25;20.70;99.90
30473;DHT22;17263;48.160;11.452;2023-08-01T10:16:51;20.60;99.90
30473;DHT22;17263;48.160;11.452;2023-08-01T10:19:19;20.50;99.90
30473;DHT22;17263;48.160;11.452;2023-08-01T10:21:47;20.40;99.90
30473;DHT22;17263;48.160;11.452;2023-08-01T10:24:13;20.30;99.90
30473;DHT22;17263;48.160;11.452;2023-08-01T10:26:40;20.10;99.90
30473;DHT22;17263;48.160;11.452;2023-08-01T10:29:06;20.00;99.90
30473;DHT22;17263;48.160;11.452;2023-08-01T10:31:32;19.80;99.90
30473;DHT22;17263;48.160;11.452;2023-08-01T10:34:12;19.60;99.90
30473;DHT22;17263;48.160;11.452;2023-08-01T10:36:38;19.40;99.90
30473;DHT22;17263;48.160;11.452;2023-08-01T10:39:05;19.30;99.90
30473;DHT22;17263;48.160;11.452;2023-08-01T10:41:33;19.30;99.90
30473;DHT22;17263;48.160;11.452;2023-08-01T10:44:13;19.20;99.90
30473;DHT22;17263;48.160;11.452;2023-08-01T10:49:19;19.20;99.90
30473;DHT22;17263;48.160;11.452;2023-08-01T10:51:47;19.30;99.90
30473;DHT22;17263;48.160;11.452;2023-08-01T10:54:21;19.30;99.90
30473;DHT22;17263;48.160;11.452;2023-08-01T10:56:51;19.30;99.90
30473;DHT22;17263;48.160;11.452;2023-08-01T10:59:18;19.40;99.90
30473;DHT22;17263;48.160;11.452;2023-08-01T11:01:48;19.50;99.90
30473;DHT22;17263;48.160;11.452;2023-08-01T11:04:19;19.50;99.90
30473;DHT22;17263;48.160;11.452;2023-08-01T11:06:47;19.50;99.90
30473;DHT22;17263;48.160;11.452;2023-08-01T11:09:17;19.40;99.90
30473;DHT22;17263;48.160;11.452;2023-08-01T11:11:44;19.40;99.90
30473;DHT22;17263;48.160;11.452;2023-08-01T11:14:11;19.40;99.90
30473;DHT22;17263;48.160;11.452;2023-08-01T11:16:39;19.40;99.90
30473;DHT22;17263;48.160;11.452;2023-08-01T11:19:27;19.40;99.90
30473;DHT22;17263;48.160;11.452;2023-08-01T11:21:54;19.40;99.90
30473;DHT22;17263;48.160;11.452;2023-08-01T11:24:24;19.50;99.90
30473;DHT22;17263;48.160;11.452;2023-08-01T11:26:52;19.70;99.90
30473;DHT22;17263;48.160;11.452;2023-08-01T11:29:19;19.70;99.90
30473;DHT22;17263;48.160;11.452;2023-08-01T11:34:19;19.60;99.90
30473;DHT22;17263;48.160;11.452;2023-08-01T11:36:45;19.60;99.90
30473;DHT22;17263;48.160;11.452;2023-08-01T11:39:12;19.60;99.90
30473;DHT22;17263;48.160;11.452;2023-08-01T11:41:41;19.60;99.90
30473;DHT22;17263;48.160;11.452;2023-08-01T11:44:08;19.60;99.90
30473;DHT22;17263;48.160;11.452;2023-08-01T11:46:37;19.60;99.90
30473;DHT22;17263;48.160;11.452;2023-08-01T11:49:06;19.50;99.90
30473;DHT22;17263;48.160;11.452;2023-08-01T11:51:39;19.40;99.90
30473;DHT22;17263;48.160;11.452;2023-08-01T11:54:05;19.40;99.90
30473;DHT22;17263;48.160;11.452;2023-08-01T11:56:33;19.30;99.90
30473;DHT22;17263;48.160;11.452;2023-08-01T11:58:59;19.30;99.90
30473;DHT22;17263;48.160;11.452;2023-08-01T12:01:26;19.20;99.90
30473;DHT22;17263;48.160;11.452;2023-08-01T12:03:53;19.20;99.90
30473;DHT22;17263;48.160;11.452;2023-08-01T12:06:21;19.30;99.90
30473;DHT22;17263;48.160;11.452;2023-08-01T12:08:51;19.20;99.90
30473;DHT22;17263;48.160;11.452;2023-08-01T12:13:44;19.30;99.90
30473;DHT22;17263;48.160;11.452;2023-08-01T12:16:10;19.50;99.90
30473;DHT22;17263;48.160;11.452;2023-08-01T12:18:39;19.60;99.90
30473;DHT22;17263;48.160;11.452;2023-08-01T12:21:05;19.80;99.90
30473;DHT22;17263;48.160;11.452;2023-08-01T12:23:31;19.90;99.90
30473;DHT22;17263;48.160;11.452;2023-08-01T12:25:57;20.20;99.90
30473;DHT22;17263;48.160;11.452;2023-08-01T12:28:23;20.30;99.90
30473;DHT22;17263;48.160;11.452;2023-08-01T12:30:49;20.40;99.90
30473;DHT22;17263;48.160;11.452;2023-08-01T12:33:17;20.50;99.90
30473;DHT22;17263;48.160;11.452;2023-08-01T12:35:43;20.60;99.90
30473;DHT22;17263;48.160;11.452;2023-08-01T12:38:09;20.60;99.90
30473;DHT22;17263;48.160;11.452;2023-08-01T12:40:35;20.70;99.90
30473;DHT22;17263;48.160;11.452;2023-08-01T12:43:01;20.70;99.90
30473;DHT22;17263;48.160;11.452;2023-08-01T12:45:28;20.90;99.90
30473;DHT22;17263;48.160;11.452;2023-08-01T12:47:54;20.90;99.90
30473;DHT22;17263;48.160;11.452;2023-08-01T12:50:20;20.90;99.90
30473;DHT22;17263;48.160;11.452;2023-08-01T12:52:46;20.80;99.90
30473;DHT22;17263;48.160;11.452;2023-08-01T12:55:12;20.90;99.90
30473;DHT22;17263;48.160;11.452;2023-08-01T12:57:38;21.00;99.90
30473;DHT22;17263;48.160;11.452;2023-08-01T13:00:05;21.20;99.90
30473;DHT22;17263;48.160;11.452;2023-08-01T13:02:31;21.50;99.90
30473;DHT22;17263;48.160;11.452;2023-08-01T13:04:57;21.70;99.90
30473;DHT22;17263;48.160;11.452;2023-08-01T13:07:23;21.70;99.90
30473;DHT22;17263;48.160;11.452;2023-08-01T13:09:49;21.60;99.90
30473;DHT22;17263;48.160;11.452;2023-08-01T13:12:15;21.50;99.90
30473;DHT22;17263;48.160;11.452;2023-08-01T13:14:41;21.50;99.90
30473;DHT22;17263;48.160;11.452;2023-08-01T13:17:07;21.40;99.90
30473;DHT22;17263;48.160;11.452;2023-08-01T13:19:33;21.30;99.90
30473;DHT22;17263;48.160;11.452;2023-08-01T13:21:59;21.20;99.90
30473;DHT22;17263;48.160;11.452;2023-08-01T13:24:25;21.00;99.90
30473;DHT22;17263;48.160;11.452;2023-08-01T13:26:51;21.00;99.90
30473;DHT22;17263;48.160;11.452;2023-08-01T13:29:17;21.00;99.90
30473;DHT22;17263;48.160;11.452;2023-08-01T13:31:43;21.10;99.90
30473;DHT22;17263;48.160;11.452;2023-08-01T13:34:09;21.20;99.90
30473;DHT22;17263;48.160;11.452;2023-08-01T13:36:36;21.30;99.90
30473;DHT22;17263;48.160;11.452;2023-08-01T13:39:02;21.40;99.90
30473;DHT22;17263;48.160;11.452;2023-08-01T13:41:28;21.50;99.90
30473;DHT22;17263;48.160;11.452;2023-08-01T13:43:54;21.70;99.90
30473;DHT22;17263;48.160;11.452;2023-08-01T13:46:20;21.80;99.90
30473;DHT22;17263;48.160;11.452;2023-08-01T13:48:46;21.80;99.90
30473;DHT22;17263;48.160;11.452;2023-08-01T13:51:13;21.80;99.90
30473;DHT22;17263;48.160;11.452;2023-08-01T13:53:39;21.80;99.90
30473;DHT22;17263;48.160;11.452;2023-08-01T13:56:12;21.70;99.90
30473;DHT22;17263;48.160;11.452;2023-08-01T13:58:39;21.50;99.90
30473;DHT22;17263;48.160;11.452;2023-08-01T14:01:07;21.40;99.90
30473;DHT22;17263;48.160;11.452;2023-08-01T14:03:34;21.30;99.90
30473;DHT22;17263;48.160;11.452;2023-08-01T14:06:07;21.20;99.90
30473;DHT22;17263;48.160;11.452;2023-08-01T14:08:34;21.10;99.90
30473;DHT22;17263;48.160;11.452;2023-08-01T14:11:02;21.00;99.90
30473;DHT22;17263;48.160;11.452;2023-08-01T14:13:29;20.90;99.90
30473;DHT22;17263;48.160;11.452;2023-08-01T14:15:55;20.80;99.90
30473;DHT22;17263;48.160;11.452;2023-08-01T14:18:21;20.60;99.90
30473;DHT22;17263;48.160;11.452;2023-08-01T14:20:47;20.40;99.90
30473;DHT22;17263;48.160;11.452;2023-08-01T14:23:13;20.20;99.90
30473;DHT22;17263;48.160;11.452;2023-08-01T14:25:39;20.10;99.90
30473;DHT22;17263;48.160;11.452;2023-08-01T14:28:05;20.00;99.90
30473;DHT22;17263;48.160;11.452;2023-08-01T14:30:31;19.90;99.90
30473;DHT22;17263;48.160;11.452;2023-08-01T14:33:05;19.80;99.90
30473;DHT22;17263;48.160;11.452;2023-08-01T14:35:32;19.70;99.90
30473;DHT22;17263;48.160;11.452;2023-08-01T14:37:59;19.60;99.90
30473;DHT22;17263;48.160;11.452;2023-08-01T14:40:25;19.60;99.90
30473;DHT22;17263;48.160;11.452;2023-08-01T14:42:51;19.70;99.90
30473;DHT22;17263;48.160;11.452;2023-08-01T14:45:18;19.70;99.90
30473;DHT22;17263;48.160;11.452;2023-08-01T14:47:44;19.80;99.90
30473;DHT22;17263;48.160;11.452;2023-08-01T14:50:12;19.90;99.90
30473;DHT22;17263;48.160;11.452;2023-08-01T14:52:38;19.90;99.90
30473;DHT22;17263;48.160;11.452;2023-08-01T14:55:05;20.00;99.90
30473;DHT22;17263;48.160;11.452;2023-08-01T14:57:31;20.10;99.90
30473;DHT22;17263;48.160;11.452;2023-08-01T14:59:57;20.20;99.90
30473;DHT22;17263;48.160;11.452;2023-08-01T15:02:24;20.20;99.90
30473;DHT22;17263;48.160;11.452;2023-08-01T15:04:51;20.20;99.90
30473;DHT22;17263;48.160;11.452;2023-08-01T15:07:18;20.20;99.90
30473;DHT22;17263;48.160;11.452;2023-08-01T15:09:44;20.10;99.90
30473;DHT22;17263;48.160;11.452;2023-08-01T15:12:11;20.00;99.90
30473;DHT22;17263;48.160;11.452;2023-08-01T15:14:37;19.90;99.90
30473;DHT22;17263;48.160;11.452;2023-08-01T15:17:04;19.70;99.90
30473;DHT22;17263;48.160;11.452;2023-08-01T15:19:32;19.50;99.90